createdAt,value
2018-07-04T03:01:00.388Z,27.80
2018-07-04T03:02:00.363Z,27.87
2018-07-04T03:03:00.219Z,27.84
2018-07-04T03:04:00.347Z,27.78
2018-07-04T03:05:00.197Z,27.86
2018-07-04T03:06:00.301Z,27.80
2018-07-04T03:07:00.287Z,27.81
2018-07-04T03:08:00.260Z,27.81
2018-07-04T03:09:00.394Z,27.78
2018-07-04T03:10:00.262Z,27.80
2018-07-04T03:11:00.133Z,27.78
2018-07-04T03:12:00.244Z,27.78
2018-07-04T03:13:00.255Z,27.83
2018-07-04T03:14:00.305Z,27.77
2018-07-04T03:15:00.220Z,27.80
2018-07-04T03:16:00.202Z,27.76
2018-07-04T03:17:00.201Z,27.80
2018-07-04T03:18:00.158Z,27.78
2018-07-04T03:19:00.067Z,27.77
2018-07-04T03:20:00.152Z,27.81
2018-07-04T03:21:00.039Z,27.83
2018-07-04T03:22:00.116Z,27.80
2018-07-04T03:23:00.074Z,27.78
2018-07-04T03:24:00.021Z,27.78
2018-07-04T03:25:00.105Z,27.76
2018-07-04T03:26:00.079Z,27.76
2018-07-04T03:26:59.994Z,27.76
2018-07-04T03:27:58.958Z,27.76
2018-07-04T03:29:00.070Z,27.80
2018-07-04T03:29:59.965Z,27.84
2018-07-04T03:31:00.187Z,27.69
2018-07-04T03:32:00.018Z,27.74
2018-07-04T03:32:59.961Z,27.72
2018-07-04T03:33:59.909Z,27.71
2018-07-04T03:34:59.904Z,27.74
2018-07-04T03:35:59.997Z,27.69
2018-07-04T03:36:59.883Z,27.77
2018-07-04T03:37:59.966Z,27.84
2018-07-04T03:38:59.977Z,27.71
2018-07-04T03:39:59.843Z,27.74
2018-07-04T03:40:59.934Z,27.71
2018-07-04T03:41:59.918Z,27.71
2018-07-04T03:42:59.902Z,27.69
2018-07-04T03:43:59.920Z,27.65
2018-07-04T03:44:59.895Z,27.77
2018-07-04T03:45:59.911Z,27.71
2018-07-04T03:46:59.930Z,27.72
2018-07-04T03:47:59.840Z,27.69
2018-07-04T03:48:59.845Z,27.78
2018-07-04T03:49:59.764Z,27.76
2018-07-04T03:50:59.728Z,27.71
2018-07-04T03:51:59.738Z,27.72
2018-07-04T03:52:59.693Z,27.68
2018-07-04T03:53:59.864Z,27.69
2018-07-04T03:54:59.816Z,27.68
2018-07-04T03:55:59.836Z,27.68
2018-07-04T03:56:59.765Z,27.77
2018-07-04T03:57:59.703Z,27.71
2018-07-04T03:58:59.754Z,27.74
2018-07-04T03:59:59.633Z,27.71
2018-07-04T04:00:59.612Z,27.65
2018-07-04T04:02:01.124Z,27.76
2018-07-04T04:02:59.741Z,27.66
2018-07-04T04:03:59.590Z,27.68
2018-07-04T04:04:59.719Z,27.76
2018-07-04T04:05:59.600Z,27.74
2018-07-04T04:07:00.077Z,27.65
2018-07-04T04:07:59.684Z,27.69
2018-07-04T04:08:59.643Z,27.77
2018-07-04T04:09:59.630Z,27.66
2018-07-04T04:10:59.718Z,27.72
2018-07-04T04:11:59.501Z,27.72
2018-07-04T04:12:59.483Z,27.68
2018-07-04T04:13:59.592Z,27.66
2018-07-04T04:14:59.491Z,27.63
2018-07-04T04:15:59.505Z,27.71
2018-07-04T04:16:59.547Z,27.68
2018-07-04T04:18:00.094Z,27.71
2018-07-04T04:18:59.544Z,27.63
2018-07-04T04:19:59.498Z,27.65
2018-07-04T04:20:59.517Z,27.68
2018-07-04T04:21:59.390Z,27.72
2018-07-04T04:22:59.511Z,27.72
2018-07-04T04:23:59.503Z,27.65
2018-07-04T04:24:59.485Z,27.68
2018-07-04T04:25:59.472Z,27.69
2018-07-04T04:26:59.406Z,27.65
2018-07-04T04:27:59.475Z,27.62
2018-07-04T04:28:59.435Z,27.71
2018-07-04T04:30:00.117Z,27.65
2018-07-04T04:30:59.403Z,27.65
2018-07-04T04:31:59.395Z,27.68
2018-07-04T04:32:59.429Z,27.65
2018-07-04T04:33:59.481Z,27.66
2018-07-04T04:34:59.373Z,27.66
2018-07-04T04:35:59.393Z,27.65
2018-07-04T04:36:59.359Z,27.69
2018-07-04T04:37:59.338Z,27.63
2018-07-04T04:38:59.439Z,27.62
2018-07-04T04:39:59.210Z,27.61
2018-07-04T04:40:59.348Z,27.65
2018-07-04T04:41:59.293Z,27.59
2018-07-04T04:42:59.277Z,27.58
2018-07-04T04:43:59.267Z,27.74
2018-07-04T04:44:59.154Z,27.72
2018-07-04T04:45:59.280Z,27.62
2018-07-04T04:46:59.336Z,27.65
2018-07-04T04:47:59.273Z,27.62
2018-07-04T04:48:59.261Z,27.62
2018-07-04T04:49:59.211Z,27.61
2018-07-04T04:50:59.101Z,27.68
2018-07-04T04:51:59.236Z,27.63
2018-07-04T04:52:59.179Z,27.55
2018-07-04T04:53:59.176Z,27.53
2018-07-04T04:55:01.106Z,27.68
2018-07-04T04:55:59.163Z,27.59
2018-07-04T04:56:59.159Z,27.65
2018-07-04T04:57:59.126Z,27.58
2018-07-04T04:58:59.113Z,27.62
2018-07-04T04:59:59.107Z,27.55
2018-07-04T05:00:59.136Z,27.62
2018-07-04T05:01:59.116Z,27.55
2018-07-04T05:02:58.965Z,27.63
2018-07-04T05:03:59.058Z,27.63
2018-07-04T05:04:59.135Z,27.58
2018-07-04T05:05:59.061Z,27.62
2018-07-04T05:06:59.038Z,27.55
2018-07-04T05:07:59.091Z,27.62
2018-07-04T05:08:59.026Z,27.63
2018-07-04T05:09:59.036Z,27.62
2018-07-04T05:10:59.092Z,27.58
2018-07-04T05:11:59.063Z,27.58
2018-07-04T05:12:58.867Z,27.61
2018-07-04T05:13:58.873Z,27.61
2018-07-04T05:14:58.857Z,27.50
2018-07-04T05:15:58.966Z,27.53
2018-07-04T05:16:58.938Z,27.62
2018-07-04T05:17:58.971Z,27.61
2018-07-04T05:18:58.919Z,27.61
2018-07-04T05:19:58.864Z,27.59
2018-07-04T05:20:58.926Z,27.49
2018-07-04T05:21:58.775Z,27.61
2018-07-04T05:22:58.897Z,27.61
2018-07-04T05:23:58.854Z,27.61
2018-07-04T05:24:58.842Z,27.62
2018-07-04T05:25:58.759Z,27.58
2018-07-04T05:26:58.846Z,27.53
2018-07-04T05:27:58.922Z,27.61
2018-07-04T05:28:58.838Z,27.59
2018-07-04T05:29:58.804Z,27.63
2018-07-04T05:31:00.790Z,27.62
2018-07-04T05:33:10.173Z,27.58
2018-07-04T05:34:10.176Z,27.58
2018-07-04T05:35:18.268Z,27.62
2018-07-04T05:36:11.071Z,27.59
2018-07-04T05:38:01.590Z,27.53
2018-07-04T05:39:02.469Z,27.59
2018-07-04T05:40:02.456Z,27.58
2018-07-04T05:41:01.490Z,27.61
2018-07-04T05:42:02.594Z,27.58
2018-07-04T05:43:02.304Z,27.58
2018-07-04T05:44:02.432Z,27.58
2018-07-04T05:45:02.266Z,27.55
2018-07-04T05:46:02.382Z,27.59
2018-07-04T05:47:02.387Z,27.58
2018-07-04T05:48:02.237Z,27.55
2018-07-04T05:49:02.264Z,27.62
2018-07-04T05:50:02.305Z,27.52
2018-07-04T05:51:02.460Z,27.53
2018-07-04T05:52:01.434Z,27.62
2018-07-04T05:53:02.693Z,27.61
2018-07-04T05:54:02.375Z,27.52
2018-07-04T05:55:02.481Z,27.58
2018-07-04T05:56:02.405Z,27.55
2018-07-04T05:57:02.141Z,27.52
2018-07-04T05:58:02.158Z,27.61
2018-07-04T05:59:02.142Z,27.53
2018-07-04T06:00:02.261Z,27.58
2018-07-04T06:01:02.220Z,27.55
2018-07-04T06:02:02.243Z,27.53
2018-07-04T06:03:02.208Z,27.49
2018-07-04T06:04:02.088Z,27.53
2018-07-04T06:05:02.208Z,27.58
2018-07-04T06:06:02.082Z,27.55
2018-07-04T06:07:02.040Z,27.58
2018-07-04T06:08:04.617Z,27.50
2018-07-04T06:09:02.531Z,27.55
2018-07-04T06:10:03.088Z,27.58
2018-07-04T06:11:02.013Z,27.58
2018-07-04T06:12:02.078Z,27.58
2018-07-04T06:13:01.992Z,27.58
2018-07-04T06:14:02.010Z,27.50
2018-07-04T06:15:01.994Z,27.63
2018-07-04T06:16:01.947Z,27.58
2018-07-04T06:17:02.038Z,27.55
2018-07-04T06:18:01.930Z,27.62
2018-07-04T06:19:01.946Z,27.62
2018-07-04T06:20:01.930Z,27.48
2018-07-04T06:21:01.906Z,27.34
2018-07-04T06:22:01.919Z,27.34
2018-07-04T06:23:01.895Z,27.18
2018-07-04T06:24:02.206Z,27.12
2018-07-04T06:25:01.860Z,27.05
2018-07-04T06:26:01.941Z,26.90
2018-07-04T06:27:01.840Z,26.83
2018-07-04T06:28:01.931Z,26.75
2018-07-04T06:29:01.964Z,26.56
2018-07-04T06:30:01.812Z,26.51
2018-07-04T06:31:01.785Z,26.47
2018-07-04T06:32:02.055Z,26.42
2018-07-04T06:33:01.909Z,26.35
2018-07-04T06:34:03.132Z,26.17
2018-07-04T06:35:02.021Z,26.16
2018-07-04T06:36:01.746Z,26.08
2018-07-04T06:37:01.854Z,26.08
2018-07-04T06:38:01.739Z,26.00
2018-07-04T06:39:01.753Z,25.96
2018-07-04T06:40:01.719Z,25.79
2018-07-04T06:41:01.713Z,25.86
2018-07-04T06:42:01.709Z,25.78
2018-07-04T06:43:01.666Z,25.75
2018-07-04T06:44:01.785Z,25.76
2018-07-04T06:45:01.657Z,25.63
2018-07-04T06:46:01.647Z,25.60
2018-07-04T06:47:02.197Z,25.59
2018-07-04T06:48:01.909Z,25.61
2018-07-04T06:49:01.692Z,25.53
2018-07-04T06:50:01.612Z,25.49
2018-07-04T06:51:03.028Z,25.44
2018-07-04T06:52:01.575Z,25.48
2018-07-04T06:53:01.592Z,25.38
2018-07-04T06:54:01.681Z,25.35
2018-07-04T06:55:01.567Z,25.30
2018-07-04T06:56:01.994Z,25.38
2018-07-04T06:57:01.827Z,25.35
2018-07-04T06:58:01.617Z,25.31
2018-07-04T06:59:01.501Z,25.30
2018-07-04T07:00:02.395Z,25.26
2018-07-04T07:01:01.510Z,25.34
2018-07-04T07:02:01.540Z,25.38
2018-07-04T07:03:01.486Z,25.36
2018-07-04T07:04:01.612Z,25.38
2018-07-04T07:05:01.488Z,25.39
2018-07-04T07:06:01.462Z,25.38
2018-07-04T07:07:01.476Z,25.35
2018-07-04T07:08:01.420Z,25.31
2018-07-04T07:09:01.406Z,25.31
2018-07-04T07:10:01.398Z,25.23
2018-07-04T07:11:01.527Z,25.24
2018-07-04T07:12:01.393Z,25.14
2018-07-04T07:13:01.542Z,25.24
2018-07-04T07:14:01.361Z,25.24
2018-07-04T07:15:01.358Z,25.17
2018-07-04T07:16:01.322Z,25.27
2018-07-04T07:17:01.341Z,25.27
2018-07-04T07:18:01.310Z,25.16
2018-07-04T07:19:01.514Z,25.20
2018-07-04T07:20:01.319Z,25.16
2018-07-04T07:21:01.446Z,25.19
2018-07-04T07:22:01.321Z,25.20
2018-07-04T07:23:01.376Z,25.19
2018-07-04T07:24:01.243Z,25.23
2018-07-04T07:25:01.248Z,25.26
2018-07-04T07:26:01.238Z,25.27
2018-07-04T07:27:01.222Z,25.14
2018-07-04T07:28:01.198Z,25.19
2018-07-04T07:29:01.183Z,25.24
2018-07-04T07:30:01.345Z,25.22
2018-07-04T07:31:01.174Z,25.22
2018-07-04T07:32:01.198Z,25.27
2018-07-04T07:33:01.166Z,25.26
2018-07-04T07:34:01.253Z,25.22
2018-07-04T07:35:00.200Z,25.34
2018-07-04T07:36:01.134Z,25.31
2018-07-04T07:37:01.219Z,25.36
2018-07-04T07:38:02.778Z,25.39
2018-07-04T07:39:01.214Z,25.41
2018-07-04T07:40:01.436Z,25.45
2018-07-04T07:41:01.176Z,25.39
2018-07-04T07:42:01.223Z,25.44
2018-07-04T07:43:01.083Z,25.45
2018-07-04T07:44:01.030Z,25.46
2018-07-04T07:45:01.041Z,25.49
2018-07-04T07:46:00.061Z,25.53
2018-07-04T07:47:01.036Z,25.53
2018-07-04T07:48:01.086Z,25.54
2018-07-04T07:49:00.980Z,25.64
2018-07-04T07:50:01.095Z,25.64
2018-07-04T07:51:00.960Z,25.56
2018-07-04T07:52:00.940Z,25.63
2018-07-04T07:53:01.072Z,25.60
2018-07-04T07:54:00.990Z,25.59
2018-07-04T07:55:03.251Z,25.63
2018-07-04T07:56:00.965Z,25.61
2018-07-04T07:57:00.937Z,25.67
2018-07-04T07:58:00.933Z,25.60
2018-07-04T07:59:00.860Z,25.59
2018-07-04T08:00:01.071Z,25.67
2018-07-04T08:01:00.897Z,25.71
2018-07-04T08:02:00.943Z,25.75
2018-07-04T08:03:00.926Z,25.71
2018-07-04T08:04:00.805Z,25.79
2018-07-04T08:05:00.802Z,25.90
2018-07-04T08:06:00.939Z,25.90
2018-07-04T08:07:00.919Z,25.93
2018-07-04T08:08:00.792Z,25.94
2018-07-04T08:09:01.806Z,25.96
2018-07-04T08:10:00.961Z,25.91
2018-07-04T08:11:00.927Z,25.98
2018-07-04T08:12:00.852Z,26.09
2018-07-04T08:13:00.784Z,26.01
2018-07-04T08:14:00.696Z,26.09
2018-07-04T08:15:00.792Z,26.12
2018-07-04T08:16:00.807Z,26.11
2018-07-04T08:17:00.695Z,26.17
2018-07-04T08:18:00.912Z,26.23
2018-07-04T08:19:00.744Z,26.23
2018-07-04T08:20:00.674Z,26.17
2018-07-04T08:21:00.652Z,26.31
2018-07-04T08:22:00.648Z,26.28
2018-07-04T08:23:00.623Z,26.28
2018-07-04T08:24:00.791Z,26.27
2018-07-04T08:25:00.758Z,26.38
2018-07-04T08:26:00.718Z,26.41
2018-07-04T08:26:59.583Z,26.38
2018-07-04T08:28:00.703Z,26.38
2018-07-04T08:29:02.081Z,26.38
2018-07-04T08:30:01.771Z,26.42
2018-07-04T08:31:00.527Z,26.47
2018-07-04T08:32:00.695Z,26.56
2018-07-04T08:33:00.679Z,26.44
2018-07-04T08:34:00.498Z,26.59
2018-07-04T08:35:00.506Z,26.50
2018-07-04T08:36:00.501Z,26.65
2018-07-04T08:37:09.878Z,26.54
2018-07-04T08:38:00.510Z,26.54
2018-07-04T08:39:00.650Z,26.61
2018-07-04T08:40:00.558Z,26.56
2018-07-04T08:41:00.586Z,26.64
2018-07-04T08:42:00.598Z,26.68
2018-07-04T08:43:00.415Z,26.69
2018-07-04T08:44:00.548Z,26.73
2018-07-04T08:45:00.395Z,26.76
2018-07-04T08:46:00.378Z,26.72
2018-07-04T08:47:00.479Z,26.81
2018-07-04T08:48:00.371Z,26.81
2018-07-04T08:49:00.457Z,26.75
2018-07-04T08:50:00.386Z,26.91
2018-07-04T08:51:00.326Z,26.87
2018-07-04T08:52:00.453Z,26.90
2018-07-04T08:53:00.443Z,26.88
2018-07-04T08:54:00.461Z,26.90
2018-07-04T08:55:00.351Z,26.98
2018-07-04T08:56:00.281Z,27.08
2018-07-04T08:57:00.409Z,27.03
2018-07-04T08:57:59.257Z,27.08
2018-07-04T08:59:00.310Z,27.08
2018-07-04T09:00:00.267Z,27.15
2018-07-04T09:01:00.260Z,27.20
2018-07-04T09:02:00.316Z,27.27
2018-07-04T09:03:00.268Z,27.34
2018-07-04T09:04:00.359Z,27.34
2018-07-04T09:05:00.201Z,27.38
2018-07-04T09:06:00.180Z,27.40
2018-07-04T09:07:00.146Z,27.48
2018-07-04T09:08:00.212Z,27.46
2018-07-04T09:09:00.218Z,27.40
2018-07-04T09:10:03.584Z,27.49
2018-07-04T09:10:59.128Z,27.42
2018-07-04T09:12:00.113Z,27.40
2018-07-04T09:14:10.118Z,27.34
2018-07-04T09:15:10.916Z,27.40
2018-07-04T09:16:11.013Z,27.28
2018-07-04T09:17:10.968Z,27.25
2018-07-04T09:18:11.004Z,27.20
2018-07-04T09:19:12.066Z,27.18
2018-07-04T09:20:09.856Z,27.16
2018-07-04T09:21:10.838Z,27.11
2018-07-04T09:22:10.897Z,27.06
2018-07-04T09:23:10.958Z,27.13
2018-07-04T09:24:11.045Z,27.16
2018-07-04T09:26:07.845Z,27.20
2018-07-04T09:27:09.378Z,27.20
2018-07-04T09:28:06.592Z,27.24
2018-07-04T09:29:06.541Z,27.24
2018-07-04T09:30:08.092Z,27.34
2018-07-04T09:31:05.490Z,27.34
2018-07-04T09:33:32.646Z,27.35
2018-07-04T09:34:33.583Z,27.46
2018-07-04T09:35:33.555Z,27.59
2018-07-04T09:36:33.733Z,27.49
2018-07-04T09:37:33.521Z,27.61
2018-07-04T09:39:46.091Z,27.55
2018-07-04T09:40:42.550Z,27.77
2018-07-04T09:41:43.508Z,27.72
2018-07-04T09:42:43.493Z,27.68
2018-07-04T09:43:43.846Z,27.68
2018-07-04T09:44:43.468Z,27.69
2018-07-04T09:45:43.595Z,27.63
2018-07-04T09:46:43.454Z,27.46
2018-07-04T09:47:43.492Z,27.42
2018-07-04T09:48:43.416Z,27.48
2018-07-04T09:49:43.482Z,27.48
2018-07-04T09:50:43.562Z,27.40
2018-07-04T09:51:43.399Z,27.40
2018-07-04T09:52:43.421Z,27.46
2018-07-04T09:53:43.390Z,27.50
2018-07-04T09:54:43.357Z,27.59
2018-07-04T09:55:43.689Z,27.53
2018-07-04T09:56:43.345Z,27.55
2018-07-04T09:57:43.382Z,27.59
2018-07-04T09:58:43.486Z,27.55
2018-07-04T09:59:43.357Z,27.62
2018-07-04T10:00:43.310Z,27.59
2018-07-04T10:01:43.302Z,27.72
2018-07-04T10:02:43.290Z,27.63
2018-07-04T10:03:43.399Z,27.71
2018-07-04T10:04:43.422Z,27.81
2018-07-04T10:05:43.276Z,27.83
2018-07-04T10:06:43.473Z,27.76
2018-07-04T10:07:43.448Z,27.84
2018-07-04T10:08:43.352Z,27.84
2018-07-04T10:09:43.218Z,27.91
2018-07-04T10:10:43.177Z,27.99
2018-07-04T10:11:43.297Z,28.13
2018-07-04T10:12:43.381Z,28.05
2018-07-04T10:13:43.274Z,28.08
2018-07-04T10:14:43.157Z,28.17
2018-07-04T10:15:43.152Z,28.13
2018-07-04T10:16:43.134Z,28.23
2018-07-04T10:17:43.100Z,28.20
2018-07-04T10:18:43.118Z,28.28
2018-07-04T10:19:43.107Z,28.30
2018-07-04T10:20:43.097Z,28.38
2018-07-04T10:21:43.114Z,28.35
2018-07-04T10:22:43.062Z,28.35
2018-07-04T10:23:42.120Z,28.40
2018-07-04T10:24:43.200Z,28.43
2018-07-04T10:25:43.033Z,28.39
2018-07-04T10:26:43.047Z,28.42
2018-07-04T10:27:43.016Z,28.45
2018-07-04T10:28:43.140Z,28.52
2018-07-04T10:29:43.129Z,28.50
2018-07-04T10:30:42.980Z,28.55
2018-07-04T10:31:48.796Z,28.40
2018-07-04T10:32:42.946Z,28.54
2018-07-04T10:33:42.994Z,28.58
2018-07-04T10:34:42.956Z,28.57
2018-07-04T10:35:43.020Z,28.61
2018-07-04T10:36:42.935Z,28.62
2018-07-04T10:37:42.955Z,28.65
2018-07-04T10:38:43.001Z,28.69
2018-07-04T10:39:42.880Z,28.70
2018-07-04T10:40:42.884Z,28.61
2018-07-04T10:41:42.892Z,28.74
2018-07-04T10:42:43.016Z,28.72
2018-07-04T10:43:42.851Z,28.65
2018-07-04T10:44:42.865Z,28.70
2018-07-04T10:45:42.814Z,28.80
2018-07-04T10:46:42.815Z,28.80
2018-07-04T10:47:42.795Z,28.76
2018-07-04T10:48:42.813Z,28.79
2018-07-04T10:49:42.800Z,28.80
2018-07-04T10:50:42.787Z,28.83
2018-07-04T10:51:42.860Z,28.80
2018-07-04T10:52:42.777Z,28.87
2018-07-04T10:53:42.951Z,28.89
2018-07-04T10:54:42.742Z,28.85
2018-07-04T10:55:42.724Z,28.92
2018-07-04T10:56:42.725Z,28.92
2018-07-04T10:57:42.699Z,28.91
2018-07-04T10:58:42.709Z,28.91
2018-07-04T10:59:42.658Z,28.83
2018-07-04T11:00:42.815Z,28.92
2018-07-04T11:01:42.666Z,28.74
2018-07-04T11:02:42.799Z,28.76
2018-07-04T11:03:42.749Z,28.79
2018-07-04T11:04:42.759Z,28.79
2018-07-04T11:05:42.727Z,28.82
2018-07-04T11:06:42.622Z,28.82
2018-07-04T11:07:42.716Z,28.80
2018-07-04T11:08:42.695Z,28.82
2018-07-04T11:09:42.581Z,28.79
2018-07-04T11:10:42.580Z,28.77
2018-07-04T11:11:43.484Z,28.80
2018-07-04T11:12:42.558Z,28.73
2018-07-04T11:13:42.543Z,28.76
2018-07-04T11:14:42.508Z,28.77
2018-07-04T11:15:42.527Z,28.79
2018-07-04T11:16:42.679Z,28.82
2018-07-04T11:17:42.619Z,28.80
2018-07-04T11:18:42.487Z,28.89
2018-07-04T11:19:42.594Z,28.87
2018-07-04T11:20:42.793Z,28.80
2018-07-04T11:21:41.469Z,28.89
2018-07-04T11:22:42.562Z,28.95
2018-07-04T11:23:42.418Z,28.98
2018-07-04T11:24:42.420Z,28.94
2018-07-04T11:25:42.420Z,28.95
2018-07-04T11:26:42.412Z,28.91
2018-07-04T11:27:42.399Z,28.92
2018-07-04T11:28:42.386Z,28.88
2018-07-04T11:29:42.390Z,29.00
2018-07-04T11:30:42.369Z,28.91
2018-07-04T11:31:42.356Z,28.94
2018-07-04T11:32:42.447Z,28.92
2018-07-04T11:33:42.444Z,28.92
2018-07-04T11:34:42.304Z,28.97
2018-07-04T11:35:42.414Z,28.94
2018-07-04T11:36:42.275Z,28.91
2018-07-04T11:37:42.417Z,28.95
2018-07-04T11:38:42.676Z,29.02
2018-07-04T11:39:42.268Z,28.91
2018-07-04T11:40:42.388Z,28.91
2018-07-04T11:41:42.239Z,28.91
2018-07-04T11:42:42.241Z,29.00
2018-07-04T11:43:42.585Z,28.92
2018-07-04T11:44:42.199Z,28.94
2018-07-04T11:45:42.209Z,28.98
2018-07-04T11:46:42.283Z,28.85
2018-07-04T11:47:41.209Z,28.83
2018-07-04T11:48:42.177Z,28.82
2018-07-04T11:49:42.171Z,28.74
2018-07-04T11:50:42.161Z,28.80
2018-07-04T11:51:42.157Z,28.80
2018-07-04T11:52:42.249Z,28.72
2018-07-04T11:53:42.236Z,28.72
2018-07-04T11:54:42.310Z,28.64
2018-07-04T11:55:42.105Z,28.67
2018-07-04T11:56:42.133Z,28.61
2018-07-04T11:57:42.080Z,28.61
2018-07-04T11:58:42.069Z,28.54
2018-07-04T11:59:42.085Z,28.52
2018-07-04T12:00:42.114Z,28.50
2018-07-04T12:01:41.164Z,28.51
2018-07-04T12:02:42.086Z,28.43
2018-07-04T12:03:42.034Z,28.33
2018-07-04T12:04:42.011Z,28.42
2018-07-04T12:05:41.992Z,28.30
2018-07-04T12:06:40.970Z,28.35
2018-07-04T12:07:42.103Z,28.39
2018-07-04T12:08:41.990Z,28.33
2018-07-04T12:09:41.958Z,28.40
2018-07-04T12:10:42.943Z,28.42
2018-07-04T12:11:41.934Z,28.36
2018-07-04T12:12:41.920Z,28.35
2018-07-04T12:13:42.076Z,28.38
2018-07-04T12:14:41.907Z,28.24
2018-07-04T12:15:41.873Z,28.27
2018-07-04T12:16:41.890Z,28.23
2018-07-04T12:17:41.871Z,28.24
2018-07-04T12:18:41.867Z,28.17
2018-07-04T12:19:41.859Z,28.23
2018-07-04T12:20:41.992Z,28.14
2018-07-04T12:21:41.834Z,28.03
2018-07-04T12:22:42.683Z,28.14
2018-07-04T12:23:41.827Z,28.11
2018-07-04T12:24:41.848Z,28.05
2018-07-04T12:25:41.841Z,27.98
2018-07-04T12:26:41.879Z,28.06
2018-07-04T12:27:41.771Z,28.02
2018-07-04T12:28:41.771Z,27.96
2018-07-04T12:29:42.196Z,27.93
2018-07-04T12:30:41.736Z,27.93
2018-07-04T12:31:41.765Z,27.84
2018-07-04T12:32:42.513Z,27.88
2018-07-04T12:33:41.938Z,27.80
2018-07-04T12:34:41.707Z,27.80
2018-07-04T12:35:41.819Z,27.76
2018-07-04T12:36:42.042Z,27.81
2018-07-04T12:37:41.673Z,27.83
2018-07-04T12:38:41.717Z,27.77
2018-07-04T12:39:41.651Z,27.74
2018-07-04T12:40:41.655Z,27.62
2018-07-04T12:41:41.940Z,27.74
2018-07-04T12:42:41.704Z,27.71
2018-07-04T12:43:41.763Z,27.69
2018-07-04T12:44:41.589Z,27.62
2018-07-04T12:45:41.686Z,27.58
2018-07-04T12:46:41.566Z,27.59
2018-07-04T12:47:42.538Z,27.58
2018-07-04T12:48:41.659Z,27.62
2018-07-04T12:49:41.674Z,27.48
2018-07-04T12:50:41.516Z,27.48
2018-07-04T12:51:41.602Z,27.49
2018-07-04T12:52:41.631Z,27.42
2018-07-04T12:53:44.161Z,27.40
2018-07-04T12:54:41.567Z,27.33
2018-07-04T12:55:41.479Z,27.31
2018-07-04T12:56:41.637Z,27.25
2018-07-04T12:57:41.573Z,27.15
2018-07-04T12:58:41.446Z,27.05
2018-07-04T12:59:41.440Z,27.11
2018-07-04T13:00:41.418Z,27.02
2018-07-04T13:01:41.512Z,26.97
2018-07-04T13:02:48.165Z,26.94
2018-07-04T13:03:42.492Z,26.83
2018-07-04T13:04:41.538Z,26.73
2018-07-04T13:05:41.408Z,26.88
2018-07-04T13:06:41.345Z,26.81
2018-07-04T13:07:41.481Z,26.75
2018-07-04T13:08:41.344Z,26.76
2018-07-04T13:09:41.468Z,26.72
2018-07-04T13:10:41.426Z,26.69
2018-07-04T13:11:41.293Z,26.76
2018-07-04T13:12:41.464Z,26.73
2018-07-04T13:13:41.273Z,26.75
2018-07-04T13:14:41.369Z,26.73
2018-07-04T13:15:41.253Z,26.69
2018-07-04T13:16:41.355Z,26.66
2018-07-04T13:17:41.350Z,26.76
2018-07-04T13:18:41.218Z,26.83
2018-07-04T13:19:41.367Z,26.88
2018-07-04T13:20:41.387Z,26.71
2018-07-04T13:21:40.210Z,26.60
2018-07-04T13:22:41.308Z,26.56
2018-07-04T13:23:41.356Z,26.54
2018-07-04T13:24:41.173Z,26.49
2018-07-04T13:25:41.711Z,26.50
2018-07-04T13:26:41.255Z,26.53
2018-07-04T13:27:41.182Z,26.47
2018-07-04T13:28:41.191Z,26.47
2018-07-04T13:29:41.238Z,26.38
2018-07-04T13:30:41.225Z,26.34
2018-07-04T13:31:41.227Z,26.42
2018-07-04T13:32:41.067Z,26.38
2018-07-04T13:33:41.061Z,26.44
2018-07-04T13:34:41.068Z,26.42
2018-07-04T13:35:42.082Z,26.51
2018-07-04T13:36:41.163Z,26.50
2018-07-04T13:37:41.019Z,26.56
2018-07-04T13:38:41.041Z,26.60
2018-07-04T13:39:41.202Z,26.64
2018-07-04T13:40:41.007Z,26.64
2018-07-04T13:41:40.980Z,26.54
2018-07-04T13:42:40.981Z,26.47
2018-07-04T13:43:40.978Z,26.51
2018-07-04T13:44:40.971Z,26.41
2018-07-04T13:45:41.092Z,26.38
2018-07-04T13:46:41.279Z,26.36
2018-07-04T13:47:40.931Z,26.38
2018-07-04T13:48:45.382Z,26.38
2018-07-04T13:49:40.955Z,26.29
2018-07-04T13:50:40.892Z,26.35
2018-07-04T13:51:40.883Z,26.24
2018-07-04T13:52:40.891Z,26.35
2018-07-04T13:53:40.844Z,26.34
2018-07-04T13:54:42.484Z,26.32
2018-07-04T13:55:42.016Z,26.44
2018-07-04T13:56:41.444Z,26.46
2018-07-04T13:57:40.804Z,26.57
2018-07-04T13:58:40.808Z,26.57
2018-07-04T13:59:41.119Z,26.50
2018-07-04T14:00:41.215Z,26.49
2018-07-04T14:01:40.775Z,26.49
2018-07-04T14:02:40.823Z,26.38
2018-07-04T14:03:42.569Z,26.44
2018-07-04T14:04:41.084Z,26.41
2018-07-04T14:05:40.845Z,26.38
2018-07-04T14:06:40.797Z,26.35
2018-07-04T14:07:40.774Z,26.21
2018-07-04T14:08:40.782Z,26.21
2018-07-04T14:09:40.703Z,26.17
2018-07-04T14:10:40.824Z,26.17
2018-07-04T14:11:41.883Z,26.19
2018-07-04T14:12:41.925Z,26.20
2018-07-04T14:13:40.928Z,26.13
2018-07-04T14:14:40.634Z,26.21
2018-07-04T14:15:40.628Z,26.19
2018-07-04T14:16:40.714Z,26.32
2018-07-04T14:17:41.109Z,26.31
2018-07-04T14:18:40.705Z,26.31
2018-07-04T14:19:40.668Z,26.38
2018-07-04T14:20:41.391Z,26.47
2018-07-04T14:21:40.550Z,26.36
2018-07-04T14:22:43.606Z,26.46
2018-07-04T14:23:41.521Z,26.57
2018-07-04T14:24:41.836Z,26.60
2018-07-04T14:25:40.511Z,26.64
2018-07-04T14:26:40.703Z,26.69
2018-07-04T14:27:40.498Z,26.87
2018-07-04T14:28:42.420Z,26.88
2018-07-04T14:29:40.473Z,27.02
2018-07-04T14:30:41.040Z,27.05
2018-07-04T14:31:40.470Z,27.13
2018-07-04T14:32:40.552Z,27.24
2018-07-04T14:33:40.543Z,27.25
2018-07-04T14:34:40.425Z,27.30
2018-07-04T14:35:40.502Z,27.35
2018-07-04T14:36:40.516Z,27.38
2018-07-04T14:37:40.511Z,27.38
2018-07-04T14:38:40.589Z,27.43
2018-07-04T14:39:40.773Z,27.49
2018-07-04T14:40:40.466Z,27.50
2018-07-04T14:41:40.362Z,27.61
2018-07-04T14:42:40.351Z,27.59
2018-07-04T14:43:40.359Z,27.68
2018-07-04T14:44:40.349Z,27.69
2018-07-04T14:45:40.408Z,27.77
2018-07-04T14:46:40.326Z,27.84
2018-07-04T14:47:40.315Z,27.87
2018-07-04T14:48:40.276Z,27.93
2018-07-04T14:49:40.246Z,28.02
2018-07-04T14:50:40.248Z,28.01
2018-07-04T14:51:40.243Z,28.09
2018-07-04T14:52:40.334Z,28.06
2018-07-04T14:53:40.221Z,28.13
2018-07-04T14:54:40.249Z,28.17
2018-07-04T14:55:40.249Z,28.25
2018-07-04T14:56:40.212Z,28.20
2018-07-04T14:57:40.195Z,28.28
2018-07-04T14:58:40.150Z,28.30
2018-07-04T14:59:40.141Z,28.33
2018-07-04T15:00:40.262Z,28.35
2018-07-04T15:01:40.153Z,28.39
2018-07-04T15:02:40.123Z,28.39
2018-07-04T15:03:40.132Z,28.40
2018-07-04T15:04:40.259Z,28.48
2018-07-04T15:05:40.089Z,28.46
2018-07-04T15:06:40.196Z,28.46
2018-07-04T15:07:40.081Z,28.45
2018-07-04T15:08:40.172Z,28.45
2018-07-04T15:09:40.068Z,28.48
2018-07-04T15:10:40.085Z,28.52
2018-07-04T15:11:40.134Z,28.48
2018-07-04T15:12:40.133Z,28.48
2018-07-04T15:13:39.999Z,28.52
2018-07-04T15:14:40.089Z,28.55
2018-07-04T15:15:40.079Z,28.54
2018-07-04T15:16:40.085Z,28.51
2018-07-04T15:17:39.968Z,28.54
2018-07-04T15:18:40.042Z,28.51
2018-07-04T15:19:39.937Z,28.52
2018-07-04T15:20:39.964Z,28.52
2018-07-04T15:21:39.318Z,28.57
2018-07-04T15:22:40.038Z,28.54
2018-07-04T15:23:39.894Z,28.52
2018-07-04T15:24:39.882Z,28.55
2018-07-04T15:25:39.876Z,28.54
2018-07-04T15:26:40.894Z,28.55
2018-07-04T15:27:39.973Z,28.55
2018-07-04T15:28:39.991Z,28.50
2018-07-04T15:29:40.031Z,28.54
2018-07-04T15:30:39.916Z,28.52
2018-07-04T15:31:39.814Z,28.58
2018-07-04T15:32:39.919Z,28.57
2018-07-04T15:33:39.803Z,28.55
2018-07-04T15:34:39.790Z,28.54
2018-07-04T15:35:39.774Z,28.48
2018-07-04T15:36:39.762Z,28.52
2018-07-04T15:37:40.022Z,28.52
2018-07-04T15:38:39.746Z,28.50
2018-07-04T15:39:39.733Z,28.50
2018-07-04T15:40:39.728Z,28.54
2018-07-04T15:41:39.705Z,28.52
2018-07-04T15:42:39.727Z,28.48
2018-07-04T15:43:39.701Z,28.52
2018-07-04T15:44:39.802Z,28.45
2018-07-04T15:45:39.724Z,28.50
2018-07-04T15:46:39.788Z,28.50
2018-07-04T15:47:39.657Z,28.48
2018-07-04T15:48:39.747Z,28.43
2018-07-04T15:49:39.729Z,28.52
2018-07-04T15:50:39.726Z,28.50
2018-07-04T15:51:39.815Z,28.46
2018-07-04T15:52:38.712Z,28.45
2018-07-04T15:53:39.600Z,28.42
2018-07-04T15:54:39.569Z,28.50
2018-07-04T15:55:39.566Z,28.45
2018-07-04T15:56:39.667Z,28.48
2018-07-04T15:57:39.651Z,28.45
2018-07-04T15:58:39.653Z,28.48
2018-07-04T15:59:39.710Z,28.42